Dai2kousei — JD2542 — position and weather

sailwx.info

Track history (hours):
 
Tides and Currents Weather Stations Pressure Air Temp Water Temp Dewpoint Dewpoint Depression Visibility Wind Speed Wind Dir Waves Ship Positions

Dai2kousei

Last reported at 2018-Jul-15 23:18 UTC. Time now 2018-Jul-16 19:55 UTC.
Position N 34°24' E 134°14'.

Length 77 m; draft 4.5 m.

MMSI: 431000467.

Date/timePositionNaut miles runAvg speedWind from/ knotsBaromVisibWave heightAir tempDewpointWater temp
2018-Jul-15 23:18N 34°24' E 134°14'411.5
2018-Jul-15 22:56N 34°23' E 134°19'510.9
2018-Jul-15 22:30N 34°21' E 134°24'610.7
2018-Jul-15 21:57N 34°19' E 134°31'811.0
2018-Jul-15 21:12N 34°14' E 134°39'210.1
2018-Jul-15 20:59N 34°12' E 134°41'510.7
2018-Jul-15 20:30N 34°08' E 134°44'510.6
2018-Jul-15 20:00N 34°04' E 134°48'610.6
2018-Jul-15 19:28N 33°60' E 134°53'510.6
2018-Jul-15 19:00N 33°56' E 134°57'510.9
2018-Jul-15 18:30N 33°52' E 135°01'229 9.7
2018-Jul-14 18:46N 34°57' E 139°28'2 8.7
2018-Jul-14 18:29N 34°59' E 139°30'510.1
2018-Jul-14 18:00N 35°02' E 139°35'611.9
2018-Jul-14 17:30N 35°06' E 139°40'611.5
2018-Jul-14 16:59N 35°10' E 139°45'510.7
2018-Jul-14 16:30N 35°15' E 139°46'510.9
2018-Jul-14 16:01N 35°20' E 139°42'510.8
2018-Jul-14 15:30N 35°25' E 139°43'4 7.9
2018-Jul-14 15:00N 35°29' E 139°44'0 0.0
2018-Jul-14 14:29N 35°29' E 139°44'0 0.0
2018-Jul-14 13:30N 35°29' E 139°44'0 0.0
2018-Jul-14 13:00N 35°29' E 139°44'0 0.0
2018-Jul-14 12:30N 35°29' E 139°44'0 0.0
2018-Jul-14 12:00N 35°29' E 139°44'0 0.0
2018-Jul-14 11:30N 35°29' E 139°44'0 0.0
2018-Jul-14 11:00N 35°29' E 139°44'0 0.0
2018-Jul-14 10:30N 35°29' E 139°44'0 0.0
2018-Jul-14 10:00N 35°29' E 139°44'0 0.0
2018-Jul-14 09:30N 35°29' E 139°44'0 0.0
2018-Jul-14 09:00N 35°29' E 139°44'0 0.0
2018-Jul-14 08:30N 35°29' E 139°44'0 0.0
2018-Jul-14 08:00N 35°29' E 139°44'0 0.0
2018-Jul-14 07:30N 35°29' E 139°44'0 0.0
2018-Jul-14 07:00N 35°29' E 139°44'0 0.0
2018-Jul-14 06:30N 35°29' E 139°44'0 0.0
2018-Jul-14 06:00N 35°29' E 139°44'0 0.0
2018-Jul-14 05:30N 35°29' E 139°44'0 0.0
2018-Jul-14 05:00N 35°29' E 139°44'0 0.0
2018-Jul-14 04:30N 35°29' E 139°44'0 0.0
2018-Jul-14 04:00N 35°29' E 139°44'0 0.0
2018-Jul-14 03:30N 35°29' E 139°44'0 0.0
2018-Jul-14 03:00N 35°29' E 139°44'0 0.0
2018-Jul-14 02:29N 35°29' E 139°44'0 0.0
2018-Jul-14 02:00N 35°29' E 139°44'0 0.0
2018-Jul-14 01:30N 35°29' E 139°44'0 0.0
2018-Jul-14 01:00N 35°29' E 139°44'0 0.0
2018-Jul-14 00:30N 35°29' E 139°44'0 0.0
2018-Jul-14 00:00N 35°29' E 139°44'1 1.2
2018-Jul-13 23:30N 35°29' E 139°45'1 2.4
2018-Jul-13 23:00N 35°29' E 139°46'0 0.0
2018-Jul-13 22:30N 35°29' E 139°46'0 0.0
2018-Jul-13 22:00N 35°29' E 139°46'0 0.1
2018-Jul-13 21:30N 35°29' E 139°46'0 0.1
2018-Jul-13 21:00N 35°29' E 139°46'0 0.0
2018-Jul-13 20:30N 35°29' E 139°46'0 0.1
2018-Jul-13 20:00N 35°29' E 139°46'0 0.0
2018-Jul-13 19:30N 35°29' E 139°46'0 0.1
2018-Jul-13 19:00N 35°29' E 139°46'0 0.1
2018-Jul-13 18:30N 35°29' E 139°46'0 0.0
2018-Jul-13 18:00N 35°29' E 139°46'0 0.0
2018-Jul-13 17:30N 35°29' E 139°46'0 0.2
2018-Jul-13 16:59N 35°29' E 139°46'5 9.7
2018-Jul-13 16:30N 35°24' E 139°46'611.3
2018-Jul-13 16:00N 35°19' E 139°44'510.7
2018-Jul-13 15:30N 35°14' E 139°47'510.7
2018-Jul-13 15:00N 35°09' E 139°45'1010.3
2018-Jul-13 14:00N 35°00' E 139°38'  
2018-Jul-09 14:07N 34°48' E 139°10'19 9.4
2018-Jul-09 12:05N 35°01' E 139°27'1 9.5
2018-Jul-09 11:59N 35°02' E 139°28'5 9.7
2018-Jul-09 11:30N 35°04' E 139°33'611.9
2018-Jul-09 11:00N 35°06' E 139°40'611.9
2018-Jul-09 10:30N 35°11' E 139°45'510.5
2018-Jul-09 10:00N 35°16' E 139°46'611.3
2018-Jul-09 09:31N 35°21' E 139°42'510.2
2018-Jul-09 09:00N 35°25' E 139°44'510.5
2018-Jul-09 08:30N 35°30' E 139°48'2 4.7
2018-Jul-09 08:01N 35°31' E 139°45'0 0.0
2018-Jul-09 07:31N 35°31' E 139°45'0 0.0
2018-Jul-09 06:57N 35°31' E 139°45'0 0.0
2018-Jul-09 06:31N 35°31' E 139°45'0 0.0
2018-Jul-09 06:01N 35°31' E 139°45'0 0.0
2018-Jul-09 05:30N 35°31' E 139°45'0 0.0
2018-Jul-09 05:01N 35°31' E 139°45'0 0.0
2018-Jul-09 04:30N 35°31' E 139°45'0 0.0
2018-Jul-09 04:01N 35°31' E 139°45'0 0.0
2018-Jul-09 03:31N 35°31' E 139°45'0 0.0
2018-Jul-09 02:58N 35°31' E 139°45'0 0.0
2018-Jul-09 02:30N 35°31' E 139°45'0 0.0
2018-Jul-09 02:00N 35°31' E 139°45'0 0.0
2018-Jul-09 01:30N 35°31' E 139°45'0 0.0
2018-Jul-09 01:01N 35°31' E 139°45'0 0.0
2018-Jul-09 00:30N 35°31' E 139°45'0 0.0
2018-Jul-09 00:00N 35°31' E 139°45'0 0.0
2018-Jul-08 23:31N 35°31' E 139°45'0 0.0
2018-Jul-08 23:01N 35°31' E 139°45'0 0.0
2018-Jul-08 22:30N 35°31' E 139°45'0 0.0
2018-Jul-08 22:00N 35°31' E 139°45'2 3.5
2018-Jul-08 21:28N 35°30' E 139°47'3 6.8
2018-Jul-08 20:58N 35°27' E 139°47'5 9.6
2018-Jul-08 20:30N 35°23' E 139°45'510.5
2018-Jul-08 20:00N 35°18' E 139°42'2 3.5
2018-Jul-08 19:30N 35°17' E 139°41'0 0.0
2018-Jul-08 19:00N 35°17' E 139°41'0 0.1
2018-Jul-08 18:30N 35°17' E 139°41'0 0.1
2018-Jul-08 18:00N 35°17' E 139°41'0 0.1
2018-Jul-08 17:30N 35°17' E 139°41'0 0.0
2018-Jul-08 17:00N 35°17' E 139°41'0 0.0
2018-Jul-08 16:30N 35°17' E 139°41'0 0.0
2018-Jul-08 16:00N 35°17' E 139°41'0 0.1
2018-Jul-08 15:30N 35°17' E 139°41'0 0.1
2018-Jul-08 15:00N 35°17' E 139°41'0 0.0
2018-Jul-08 14:30N 35°17' E 139°41'0 0.1
2018-Jul-08 14:00N 35°17' E 139°41'0 0.1
2018-Jul-08 13:30N 35°17' E 139°41'0 0.0
2018-Jul-08 13:00N 35°17' E 139°41'0 0.1
2018-Jul-08 12:30N 35°17' E 139°41'0 0.0
2018-Jul-08 12:00N 35°17' E 139°41'0 0.0
2018-Jul-08 11:30N 35°17' E 139°41'0 0.0
2018-Jul-08 11:00N 35°17' E 139°41'0 0.0
2018-Jul-08 10:30N 35°17' E 139°41'0 0.1
2018-Jul-08 10:00N 35°17' E 139°41'0 0.1
2018-Jul-08 09:30N 35°17' E 139°41'0 0.1
2018-Jul-08 09:00N 35°17' E 139°41'0 0.0
2018-Jul-08 08:30N 35°17' E 139°41'0 0.1
2018-Jul-08 08:00N 35°17' E 139°41'0 0.1
2018-Jul-08 07:30N 35°17' E 139°41'0 0.1
2018-Jul-08 07:00N 35°17' E 139°41'0 0.1
2018-Jul-08 06:30N 35°17' E 139°41'0 0.1
2018-Jul-08 06:00N 35°17' E 139°41'0 0.1
2018-Jul-08 05:30N 35°17' E 139°41'0 0.0
2018-Jul-08 05:00N 35°17' E 139°41'0 0.0
2018-Jul-08 04:29N 35°17' E 139°41'0 0.0
2018-Jul-08 04:00N 35°17' E 139°41'0 0.0
2018-Jul-08 03:30N 35°17' E 139°41'0 0.0
2018-Jul-08 03:00N 35°17' E 139°41'0 0.0
2018-Jul-08 02:29N 35°17' E 139°41'0 0.1
2018-Jul-08 02:00N 35°17' E 139°41'0 0.1
2018-Jul-08 01:30N 35°17' E 139°41'0 0.1
2018-Jul-08 01:00N 35°17' E 139°41'0 0.0
2018-Jul-08 00:30N 35°17' E 139°41'0 0.1
2018-Jul-08 00:00N 35°17' E 139°41'0 0.0
2018-Jul-07 23:30N 35°17' E 139°41'0 0.1
2018-Jul-07 23:00N 35°17' E 139°41'0 0.0
2018-Jul-07 22:30N 35°17' E 139°41'0 0.0
2018-Jul-07 22:00N 35°17' E 139°41'0 0.1
2018-Jul-07 21:30N 35°17' E 139°41'0 0.0
2018-Jul-07 20:59N 35°17' E 139°41'0 0.1
2018-Jul-07 20:30N 35°17' E 139°41'0 0.1
2018-Jul-07 20:00N 35°17' E 139°41'3 7.0
2018-Jul-07 19:30N 35°17' E 139°45'5 9.8
2018-Jul-07 19:00N 35°13' E 139°47'510.8
2018-Jul-07 18:30N 35°07' E 139°45'611.5
2018-Jul-07 18:00N 35°02' E 139°44'510.6
2018-Jul-07 17:30N 34°57' E 139°42'  
Track history (hours):
 
Tides and Currents Weather Stations Pressure Air Temp Water Temp Dewpoint Dewpoint Depression Visibility Wind Speed Wind Dir Waves Ship Positions

Dai2kousei

Last reported at 2018-Jul-15 23:18 UTC. Time now 2018-Jul-16 19:55 UTC.
Position N 34°24' E 134°14'.

Length 77 m; draft 4.5 m.

MMSI: 431000467.

Date/timePositionNaut miles runAvg speedWind from/ knotsBaromVisibWave heightAir tempDewpointWater temp
2018-Jul-15 23:18N 34°24' E 134°14'411.5
2018-Jul-15 22:56N 34°23' E 134°19'510.9
2018-Jul-15 22:30N 34°21' E 134°24'610.7
2018-Jul-15 21:57N 34°19' E 134°31'811.0
2018-Jul-15 21:12N 34°14' E 134°39'210.1
2018-Jul-15 20:59N 34°12' E 134°41'510.7
2018-Jul-15 20:30N 34°08' E 134°44'510.6
2018-Jul-15 20:00N 34°04' E 134°48'610.6
2018-Jul-15 19:28N 33°60' E 134°53'510.6
2018-Jul-15 19:00N 33°56' E 134°57'510.9
2018-Jul-15 18:30N 33°52' E 135°01'229 9.7
2018-Jul-14 18:46N 34°57' E 139°28'2 8.7
2018-Jul-14 18:29N 34°59' E 139°30'510.1
2018-Jul-14 18:00N 35°02' E 139°35'611.9
2018-Jul-14 17:30N 35°06' E 139°40'611.5
2018-Jul-14 16:59N 35°10' E 139°45'510.7
2018-Jul-14 16:30N 35°15' E 139°46'510.9
2018-Jul-14 16:01N 35°20' E 139°42'510.8
2018-Jul-14 15:30N 35°25' E 139°43'4 7.9
2018-Jul-14 15:00N 35°29' E 139°44'0 0.0
2018-Jul-14 14:29N 35°29' E 139°44'0 0.0
2018-Jul-14 13:30N 35°29' E 139°44'0 0.0
2018-Jul-14 13:00N 35°29' E 139°44'0 0.0
2018-Jul-14 12:30N 35°29' E 139°44'0 0.0
2018-Jul-14 12:00N 35°29' E 139°44'0 0.0
2018-Jul-14 11:30N 35°29' E 139°44'0 0.0
2018-Jul-14 11:00N 35°29' E 139°44'0 0.0
2018-Jul-14 10:30N 35°29' E 139°44'0 0.0
2018-Jul-14 10:00N 35°29' E 139°44'0 0.0
2018-Jul-14 09:30N 35°29' E 139°44'0 0.0
2018-Jul-14 09:00N 35°29' E 139°44'0 0.0
2018-Jul-14 08:30N 35°29' E 139°44'0 0.0
2018-Jul-14 08:00N 35°29' E 139°44'0 0.0
2018-Jul-14 07:30N 35°29' E 139°44'0 0.0
2018-Jul-14 07:00N 35°29' E 139°44'0 0.0
2018-Jul-14 06:30N 35°29' E 139°44'0 0.0
2018-Jul-14 06:00N 35°29' E 139°44'0 0.0
2018-Jul-14 05:30N 35°29' E 139°44'0 0.0
2018-Jul-14 05:00N 35°29' E 139°44'0 0.0
2018-Jul-14 04:30N 35°29' E 139°44'0 0.0
2018-Jul-14 04:00N 35°29' E 139°44'0 0.0
2018-Jul-14 03:30N 35°29' E 139°44'0 0.0
2018-Jul-14 03:00N 35°29' E 139°44'0 0.0
2018-Jul-14 02:29N 35°29' E 139°44'0 0.0
2018-Jul-14 02:00N 35°29' E 139°44'0 0.0
2018-Jul-14 01:30N 35°29' E 139°44'0 0.0
2018-Jul-14 01:00N 35°29' E 139°44'0 0.0
2018-Jul-14 00:30N 35°29' E 139°44'0 0.0
2018-Jul-14 00:00N 35°29' E 139°44'1 1.2
2018-Jul-13 23:30N 35°29' E 139°45'1 2.4
2018-Jul-13 23:00N 35°29' E 139°46'0 0.0
2018-Jul-13 22:30N 35°29' E 139°46'0 0.0
2018-Jul-13 22:00N 35°29' E 139°46'0 0.1
2018-Jul-13 21:30N 35°29' E 139°46'0 0.1
2018-Jul-13 21:00N 35°29' E 139°46'0 0.0
2018-Jul-13 20:30N 35°29' E 139°46'0 0.1
2018-Jul-13 20:00N 35°29' E 139°46'0 0.0
2018-Jul-13 19:30N 35°29' E 139°46'0 0.1
2018-Jul-13 19:00N 35°29' E 139°46'0 0.1
2018-Jul-13 18:30N 35°29' E 139°46'0 0.0
2018-Jul-13 18:00N 35°29' E 139°46'0 0.0
2018-Jul-13 17:30N 35°29' E 139°46'0 0.2
2018-Jul-13 16:59N 35°29' E 139°46'5 9.7
2018-Jul-13 16:30N 35°24' E 139°46'611.3
2018-Jul-13 16:00N 35°19' E 139°44'510.7
2018-Jul-13 15:30N 35°14' E 139°47'510.7
2018-Jul-13 15:00N 35°09' E 139°45'1010.3
2018-Jul-13 14:00N 35°00' E 139°38'  
2018-Jul-09 14:07N 34°48' E 139°10'19 9.4
2018-Jul-09 12:05N 35°01' E 139°27'1 9.5
2018-Jul-09 11:59N 35°02' E 139°28'5 9.7
2018-Jul-09 11:30N 35°04' E 139°33'611.9
2018-Jul-09 11:00N 35°06' E 139°40'611.9
2018-Jul-09 10:30N 35°11' E 139°45'510.5
2018-Jul-09 10:00N 35°16' E 139°46'611.3
2018-Jul-09 09:31N 35°21' E 139°42'510.2
2018-Jul-09 09:00N 35°25' E 139°44'510.5
2018-Jul-09 08:30N 35°30' E 139°48'2 4.7
2018-Jul-09 08:01N 35°31' E 139°45'0 0.0
2018-Jul-09 07:31N 35°31' E 139°45'0 0.0
2018-Jul-09 06:57N 35°31' E 139°45'0 0.0
2018-Jul-09 06:31N 35°31' E 139°45'0 0.0
2018-Jul-09 06:01N 35°31' E 139°45'0 0.0
2018-Jul-09 05:30N 35°31' E 139°45'0 0.0
2018-Jul-09 05:01N 35°31' E 139°45'0 0.0
2018-Jul-09 04:30N 35°31' E 139°45'0 0.0
2018-Jul-09 04:01N 35°31' E 139°45'0 0.0
2018-Jul-09 03:31N 35°31' E 139°45'0 0.0
2018-Jul-09 02:58N 35°31' E 139°45'0 0.0
2018-Jul-09 02:30N 35°31' E 139°45'0 0.0
2018-Jul-09 02:00N 35°31' E 139°45'0 0.0
2018-Jul-09 01:30N 35°31' E 139°45'0 0.0
2018-Jul-09 01:01N 35°31' E 139°45'0 0.0
2018-Jul-09 00:30N 35°31' E 139°45'0 0.0
2018-Jul-09 00:00N 35°31' E 139°45'0 0.0
2018-Jul-08 23:31N 35°31' E 139°45'0 0.0
2018-Jul-08 23:01N 35°31' E 139°45'0 0.0
2018-Jul-08 22:30N 35°31' E 139°45'0 0.0
2018-Jul-08 22:00N 35°31' E 139°45'2 3.5
2018-Jul-08 21:28N 35°30' E 139°47'3 6.8
2018-Jul-08 20:58N 35°27' E 139°47'5 9.6
2018-Jul-08 20:30N 35°23' E 139°45'510.5
2018-Jul-08 20:00N 35°18' E 139°42'2 3.5
2018-Jul-08 19:30N 35°17' E 139°41'0 0.0
2018-Jul-08 19:00N 35°17' E 139°41'0 0.1
2018-Jul-08 18:30N 35°17' E 139°41'0 0.1
2018-Jul-08 18:00N 35°17' E 139°41'0 0.1
2018-Jul-08 17:30N 35°17' E 139°41'0 0.0
2018-Jul-08 17:00N 35°17' E 139°41'0 0.0
2018-Jul-08 16:30N 35°17' E 139°41'0 0.0
2018-Jul-08 16:00N 35°17' E 139°41'0 0.1
2018-Jul-08 15:30N 35°17' E 139°41'0 0.1
2018-Jul-08 15:00N 35°17' E 139°41'0 0.0
2018-Jul-08 14:30N 35°17' E 139°41'0 0.1
2018-Jul-08 14:00N 35°17' E 139°41'0 0.1
2018-Jul-08 13:30N 35°17' E 139°41'0 0.0
2018-Jul-08 13:00N 35°17' E 139°41'0 0.1
2018-Jul-08 12:30N 35°17' E 139°41'0 0.0
2018-Jul-08 12:00N 35°17' E 139°41'0 0.0
2018-Jul-08 11:30N 35°17' E 139°41'0 0.0
2018-Jul-08 11:00N 35°17' E 139°41'0 0.0
2018-Jul-08 10:30N 35°17' E 139°41'0 0.1
2018-Jul-08 10:00N 35°17' E 139°41'0 0.1
2018-Jul-08 09:30N 35°17' E 139°41'0 0.1
2018-Jul-08 09:00N 35°17' E 139°41'0 0.0
2018-Jul-08 08:30N 35°17' E 139°41'0 0.1
2018-Jul-08 08:00N 35°17' E 139°41'0 0.1
2018-Jul-08 07:30N 35°17' E 139°41'0 0.1
2018-Jul-08 07:00N 35°17' E 139°41'0 0.1
2018-Jul-08 06:30N 35°17' E 139°41'0 0.1
2018-Jul-08 06:00N 35°17' E 139°41'0 0.1
2018-Jul-08 05:30N 35°17' E 139°41'0 0.0
2018-Jul-08 05:00N 35°17' E 139°41'0 0.0
2018-Jul-08 04:29N 35°17' E 139°41'0 0.0
2018-Jul-08 04:00N 35°17' E 139°41'0 0.0
2018-Jul-08 03:30N 35°17' E 139°41'0 0.0
2018-Jul-08 03:00N 35°17' E 139°41'0 0.0
2018-Jul-08 02:29N 35°17' E 139°41'0 0.1
2018-Jul-08 02:00N 35°17' E 139°41'0 0.1
2018-Jul-08 01:30N 35°17' E 139°41'0 0.1
2018-Jul-08 01:00N 35°17' E 139°41'0 0.0
2018-Jul-08 00:30N 35°17' E 139°41'0 0.1
2018-Jul-08 00:00N 35°17' E 139°41'0 0.0
2018-Jul-07 23:30N 35°17' E 139°41'0 0.1
2018-Jul-07 23:00N 35°17' E 139°41'0 0.0
2018-Jul-07 22:30N 35°17' E 139°41'0 0.0
2018-Jul-07 22:00N 35°17' E 139°41'0 0.1
2018-Jul-07 21:30N 35°17' E 139°41'0 0.0
2018-Jul-07 20:59N 35°17' E 139°41'0 0.1
2018-Jul-07 20:30N 35°17' E 139°41'0 0.1
2018-Jul-07 20:00N 35°17' E 139°41'3 7.0
2018-Jul-07 19:30N 35°17' E 139°45'5 9.8
2018-Jul-07 19:00N 35°13' E 139°47'510.8
2018-Jul-07 18:30N 35°07' E 139°45'611.5
2018-Jul-07 18:00N 35°02' E 139°44'510.6
2018-Jul-07 17:30N 34°57' E 139°42'  

Dump ship's entire track history